aviador You're here:

OBBI Decoded Metar

BAHRAIN in BAHRAIN
Report Time2018-05-25 20:30:00
UTC Time2018-05-25 20:36:02
Flight Rules vfr VFR
Wind120° at 07 kt
W.Decomp.*RWY 12: 7.0 kt HW 0.2 kt LCW
W.Rank120° ranks 13
Current wind is below 120° avg. (7.1)
Visibility8000 m
Phenomena:N/A
Clouds:N/A
Expected CloudBase > 2,800 ft AGL from Temp-Dew spread
CeilingNone
Temp30°C (ISA +15)
Dew Point23°C (66% RH)
Heat Index34.1°C
QNH1005 hPa
Density Alt2,365 ft
Elevation7 ft
Report Wrong Elevation
Raw Report
OBBI 252030Z 12007KT 8000 SKC 30/23 Q1005 NOSIG=

Extra information for OBBI:More info

Metar Taf Metar & Taf Last 4 Metars F.Rules Stats Wind Profile Meteogram Temp Stats Airport Information Weather charts Add Link Nearby VenuesMetar ALERT Operation Metar Decoded Social comments